createdAt,value
2018-08-20T00:00:49.454Z,20.20
2018-08-20T00:03:17.653Z,19.60
2018-08-20T00:05:50.108Z,18.57
2018-08-20T00:08:18.286Z,18.60
2018-08-20T00:10:46.466Z,18.67
2018-08-20T00:13:14.666Z,19.60
2018-08-20T00:15:42.857Z,19.23
2018-08-20T00:18:16.842Z,18.80
2018-08-20T00:20:45.126Z,19.40
2018-08-20T00:23:13.328Z,19.17
2018-08-20T00:25:41.525Z,19.70
2018-08-20T00:28:09.688Z,19.10
2018-08-20T00:30:38.818Z,18.97
2018-08-20T00:33:06.983Z,19.73
2018-08-20T00:35:35.267Z,20.10
2018-08-20T00:38:03.451Z,19.27
2018-08-20T00:40:31.618Z,20.40
2018-08-20T00:42:59.814Z,19.70
2018-08-20T00:45:28.015Z,19.00
2018-08-20T00:47:56.194Z,19.20
2018-08-20T00:50:24.389Z,19.67
2018-08-20T00:52:52.592Z,19.87
2018-08-20T00:55:20.811Z,18.97
2018-08-20T00:57:48.982Z,18.83
2018-08-20T01:00:17.170Z,19.30
2018-08-20T01:02:45.364Z,19.10
2018-08-20T01:05:13.550Z,19.57
2018-08-20T01:07:41.718Z,20.23
2018-08-20T01:10:09.898Z,18.87
2018-08-20T01:12:38.062Z,19.80
2018-08-20T01:15:06.242Z,19.77
2018-08-20T01:17:34.410Z,20.40
2018-08-20T01:20:02.593Z,19.50
2018-08-20T01:22:30.782Z,18.07
2018-08-20T01:24:59.048Z,18.80
2018-08-20T01:27:27.744Z,19.47
2018-08-20T01:29:55.980Z,18.77
2018-08-20T01:32:24.180Z,19.33
2018-08-20T01:34:52.358Z,19.90
2018-08-20T01:37:21.327Z,19.70
2018-08-20T01:39:49.948Z,19.23
2018-08-20T01:42:18.634Z,19.70
2018-08-20T01:44:47.613Z,20.57
2018-08-20T01:47:15.821Z,18.90
2018-08-20T01:49:43.997Z,19.57
2018-08-20T01:52:12.179Z,18.73
2018-08-20T01:54:40.346Z,19.50
2018-08-20T01:57:08.559Z,20.40
2018-08-20T01:59:37.666Z,19.60
2018-08-20T02:02:05.857Z,20.23
2018-08-20T02:04:34.098Z,18.57
2018-08-20T02:07:02.293Z,19.17
2018-08-20T02:09:30.546Z,18.10
2018-08-20T02:11:58.755Z,18.50
2018-08-20T02:14:26.950Z,19.60
2018-08-20T02:16:55.130Z,19.63
2018-08-20T02:19:23.329Z,19.60
2018-08-20T02:21:51.727Z,19.40
2018-08-20T02:24:19.902Z,19.50
2018-08-20T02:26:48.086Z,21.70
2018-08-20T02:29:16.289Z,22.20
2018-08-20T02:31:44.462Z,22.57
2018-08-20T02:34:12.837Z,21.27
2018-08-20T02:36:41.791Z,22.00
2018-08-20T02:39:12.370Z,22.03
2018-08-20T02:41:40.965Z,21.70
2018-08-20T02:44:09.943Z,20.77
2018-08-20T02:46:44.427Z,22.63
2018-08-20T02:49:12.853Z,21.50
2018-08-20T02:51:41.094Z,20.57
2018-08-20T02:54:09.714Z,23.00
2018-08-20T02:56:37.886Z,23.40
2018-08-20T02:59:06.358Z,22.40
2018-08-20T03:01:34.554Z,20.00
2018-08-20T03:04:02.758Z,22.13
2018-08-20T03:06:30.974Z,22.60
2018-08-20T03:08:59.181Z,21.80
2018-08-20T03:11:27.365Z,22.67
2018-08-20T03:13:55.542Z,20.67
2018-08-20T03:16:23.784Z,21.30
2018-08-20T03:18:51.982Z,22.37
2018-08-20T03:21:20.164Z,22.07
2018-08-20T03:23:48.367Z,20.80
2018-08-20T03:26:16.569Z,20.27
2018-08-20T03:28:44.744Z,21.13
2018-08-20T03:31:12.931Z,22.00
2018-08-20T03:33:41.105Z,20.70
2018-08-20T03:36:09.287Z,21.83
2018-08-20T03:38:37.465Z,21.60
2018-08-20T03:41:05.725Z,21.00
2018-08-20T03:43:33.911Z,20.53
2018-08-20T03:46:02.110Z,20.63
2018-08-20T03:48:30.554Z,21.07
2018-08-20T03:50:58.770Z,19.17
2018-08-20T03:53:26.983Z,21.73
2018-08-20T03:55:55.204Z,20.10
2018-08-20T03:58:23.374Z,21.13
2018-08-20T04:00:51.575Z,20.80
2018-08-20T04:03:19.762Z,20.63
2018-08-20T04:05:47.923Z,19.43
2018-08-20T04:08:16.098Z,20.07
2018-08-20T04:10:44.282Z,20.20
2018-08-20T04:13:12.450Z,18.50
2018-08-20T04:15:40.622Z,18.47
2018-08-20T04:18:08.866Z,19.33
2018-08-20T04:20:37.078Z,19.17
2018-08-20T04:23:05.284Z,18.67
2018-08-20T04:25:33.459Z,17.70
2018-08-20T04:28:01.866Z,18.87
2018-08-20T04:30:30.079Z,17.27
2018-08-20T04:32:58.215Z,17.77
2018-08-20T04:35:26.405Z,17.57
2018-08-20T04:37:54.577Z,17.33
2018-08-20T04:40:22.746Z,15.63
2018-08-20T04:42:50.971Z,15.00
2018-08-20T04:45:19.145Z,15.33
2018-08-20T04:47:47.320Z,14.23
2018-08-20T04:50:15.622Z,14.33
2018-08-20T04:52:43.678Z,14.57
2018-08-20T04:55:11.862Z,14.40
2018-08-20T04:57:40.031Z,12.83
2018-08-20T05:00:09.869Z,13.27
2018-08-20T05:02:38.078Z,13.07
2018-08-20T05:05:06.296Z,12.30
2018-08-20T05:07:34.899Z,13.30
2018-08-20T05:10:03.111Z,13.20
2018-08-20T05:12:31.234Z,12.47
2018-08-20T05:14:59.640Z,12.67
2018-08-20T05:17:28.307Z,12.80
2018-08-20T05:19:56.474Z,12.90
2018-08-20T05:22:24.663Z,12.23
2018-08-20T05:24:52.836Z,12.70
2018-08-20T05:27:21.019Z,13.10
2018-08-20T05:29:49.193Z,12.40
2018-08-20T05:32:17.365Z,14.03
2018-08-20T05:34:45.531Z,12.43
2018-08-20T05:37:13.710Z,12.70
2018-08-20T05:39:41.881Z,12.63
2018-08-20T05:42:10.058Z,11.63
2018-08-20T05:44:38.249Z,12.63
2018-08-20T05:47:06.442Z,12.53
2018-08-20T05:49:34.618Z,11.47
2018-08-20T05:52:02.839Z,11.67
2018-08-20T05:54:31.007Z,11.40
2018-08-20T05:56:59.182Z,11.30
2018-08-20T05:59:27.355Z,12.23
2018-08-20T06:01:55.530Z,12.47
2018-08-20T06:04:23.720Z,11.87
2018-08-20T06:06:51.890Z,11.60
2018-08-20T06:09:20.080Z,10.90
2018-08-20T06:11:48.267Z,12.07
2018-08-20T06:14:16.470Z,11.50
2018-08-20T06:16:44.684Z,12.23
2018-08-20T06:19:12.867Z,11.63
2018-08-20T06:21:41.052Z,12.90
2018-08-20T06:24:09.222Z,13.70
2018-08-20T06:26:37.393Z,15.80
2018-08-20T06:29:05.664Z,14.97
2018-08-20T06:31:33.847Z,16.13
2018-08-20T06:34:02.030Z,16.73
2018-08-20T06:36:30.398Z,17.70
2018-08-20T06:38:58.598Z,17.50
2018-08-20T06:41:26.870Z,17.73
2018-08-20T06:43:55.019Z,18.80
2018-08-20T06:46:23.223Z,20.00
2018-08-20T06:48:51.414Z,19.97
2018-08-20T06:51:19.794Z,19.80
2018-08-20T06:53:47.962Z,19.00
2018-08-20T06:56:16.179Z,21.97
2018-08-20T06:58:44.348Z,20.83
2018-08-20T07:01:12.543Z,20.23
2018-08-20T07:03:40.731Z,22.20
2018-08-20T07:06:08.938Z,23.13
2018-08-20T07:08:37.143Z,21.50
2018-08-20T07:11:05.329Z,21.27
2018-08-20T07:13:35.787Z,21.93
2018-08-20T07:16:04.314Z,18.70
2018-08-20T07:18:32.492Z,18.53
2018-08-20T07:21:00.670Z,17.17
2018-08-20T07:23:29.500Z,16.50
2018-08-20T07:25:57.625Z,16.00
2018-08-20T07:28:25.826Z,15.57
2018-08-20T07:30:54.029Z,15.57
2018-08-20T07:33:22.262Z,19.20
2018-08-20T07:35:50.451Z,20.73
2018-08-20T07:38:18.621Z,22.37
2018-08-20T07:40:46.804Z,20.67
2018-08-20T07:43:15.006Z,19.40
2018-08-20T07:45:43.194Z,17.67
2018-08-20T07:48:11.379Z,16.07
2018-08-20T07:50:39.580Z,20.10
2018-08-20T07:53:08.030Z,22.40
2018-08-20T07:55:36.254Z,23.80
2018-08-20T07:58:04.480Z,29.93
2018-08-20T08:00:32.665Z,26.50
2018-08-20T08:03:00.831Z,27.87
2018-08-20T08:05:29.007Z,24.77
2018-08-20T08:07:57.191Z,26.50
2018-08-20T08:10:25.362Z,24.80
2018-08-20T08:12:53.618Z,24.20
2018-08-20T08:15:21.790Z,23.47
2018-08-20T08:17:49.970Z,22.20
2018-08-20T08:20:18.154Z,21.60
2018-08-20T08:22:46.355Z,20.80
2018-08-20T08:25:14.550Z,19.50
2018-08-20T08:27:42.723Z,18.97
2018-08-20T08:30:16.370Z,19.60
2018-08-20T08:32:44.641Z,17.97
2018-08-20T08:35:13.663Z,18.03
2018-08-20T08:37:41.987Z,17.73
2018-08-20T08:40:11.698Z,19.57
2018-08-20T08:42:39.890Z,20.37
2018-08-20T08:45:14.403Z,22.87
2018-08-20T08:47:42.994Z,20.83
2018-08-20T08:50:11.312Z,21.23
2018-08-20T08:52:39.559Z,19.20
2018-08-20T08:55:08.218Z,20.60
2018-08-20T08:57:36.813Z,18.60
2018-08-20T09:00:07.803Z,18.83
2018-08-20T09:02:35.983Z,19.37
2018-08-20T09:05:04.875Z,20.13
2018-08-20T09:07:33.075Z,19.10
2018-08-20T09:10:01.267Z,20.77
2018-08-20T09:12:29.438Z,20.03
2018-08-20T09:14:57.616Z,18.50
2018-08-20T09:17:25.813Z,21.43
2018-08-20T09:19:53.984Z,21.13
2018-08-20T09:22:22.158Z,20.30
2018-08-20T09:24:50.344Z,20.70
2018-08-20T09:27:18.518Z,21.00
2018-08-20T09:29:46.712Z,20.87
2018-08-20T09:32:14.960Z,21.53
2018-08-20T09:34:43.085Z,22.47
2018-08-20T09:37:11.687Z,22.37
2018-08-20T09:39:39.876Z,24.90
2018-08-20T09:42:08.052Z,25.10
2018-08-20T09:44:36.233Z,25.03
2018-08-20T09:47:04.428Z,25.80
2018-08-20T09:49:32.878Z,26.27
2018-08-20T09:52:01.079Z,25.00
2018-08-20T09:54:29.270Z,26.67
2018-08-20T09:56:57.475Z,26.10
2018-08-20T09:59:25.672Z,26.77
2018-08-20T10:01:53.835Z,28.87
2018-08-20T10:04:22.002Z,25.53
2018-08-20T10:06:50.195Z,27.00
2018-08-20T10:09:18.359Z,25.00
2018-08-20T10:11:46.543Z,25.73
2018-08-20T10:14:14.719Z,25.00
2018-08-20T10:16:42.907Z,24.33
2018-08-20T10:19:11.089Z,24.00
2018-08-20T10:21:39.274Z,25.07
2018-08-20T10:24:07.746Z,25.00
2018-08-20T10:26:35.915Z,23.00
2018-08-20T10:29:04.110Z,22.60
2018-08-20T10:31:32.295Z,21.90
2018-08-20T10:34:00.474Z,20.83
2018-08-20T10:36:28.679Z,21.63
2018-08-20T10:38:56.858Z,22.77
2018-08-20T10:41:25.100Z,21.13
2018-08-20T10:43:53.303Z,22.90
2018-08-20T10:46:25.887Z,22.13
2018-08-20T10:48:54.447Z,22.77
2018-08-20T10:51:22.628Z,24.20
2018-08-20T10:53:50.894Z,21.83
2018-08-20T10:56:19.056Z,22.40
2018-08-20T10:58:47.231Z,22.90
2018-08-20T11:01:15.423Z,22.87
2018-08-20T11:03:47.750Z,23.83
2018-08-20T11:06:17.018Z,24.10
2018-08-20T11:08:45.200Z,22.77
2018-08-20T11:11:13.639Z,23.40
2018-08-20T11:13:41.811Z,25.93
2018-08-20T11:16:10.226Z,22.70
2018-08-20T11:18:38.427Z,22.50
2018-08-20T11:21:06.599Z,23.97
2018-08-20T11:23:34.786Z,23.27
2018-08-20T11:26:02.998Z,22.73
2018-08-20T11:28:31.175Z,22.77
2018-08-20T11:30:59.378Z,23.20
2018-08-20T11:33:27.543Z,23.70
2018-08-20T11:35:55.731Z,23.80
2018-08-20T11:38:23.904Z,24.40
2018-08-20T11:40:52.109Z,22.80
2018-08-20T11:43:21.231Z,25.60
2018-08-20T11:45:49.346Z,24.50
2018-08-20T11:48:17.535Z,22.83
2018-08-20T11:50:45.725Z,22.50
2018-08-20T11:53:13.898Z,21.10
2018-08-20T11:55:42.095Z,21.93
2018-08-20T11:58:10.287Z,21.23
2018-08-20T12:00:38.509Z,21.27
2018-08-20T12:03:07.649Z,20.83
2018-08-20T12:05:35.826Z,21.90
2018-08-20T12:08:03.995Z,21.90
2018-08-20T12:10:32.169Z,23.00
2018-08-20T12:13:00.329Z,21.00
2018-08-20T12:15:28.540Z,22.80
2018-08-20T12:17:56.698Z,23.20
2018-08-20T12:20:24.887Z,23.03
2018-08-20T12:22:53.082Z,21.63
2018-08-20T12:25:21.270Z,21.13
2018-08-20T12:27:49.442Z,22.50
2018-08-20T12:30:17.611Z,21.67
2018-08-20T12:32:45.795Z,22.00
2018-08-20T12:35:13.970Z,19.30
2018-08-20T12:37:42.213Z,20.40
2018-08-20T12:40:10.407Z,20.07
2018-08-20T12:42:38.602Z,21.33
2018-08-20T12:45:07.266Z,20.57
2018-08-20T12:47:35.454Z,19.57
2018-08-20T12:50:03.823Z,19.87
2018-08-20T12:52:32.018Z,19.00
2018-08-20T12:55:00.233Z,20.40
2018-08-20T12:57:28.424Z,18.93
2018-08-20T12:59:58.263Z,20.10
2018-08-20T13:02:26.736Z,19.80
2018-08-20T13:04:54.930Z,19.70
2018-08-20T13:07:23.292Z,21.30
2018-08-20T13:09:51.473Z,19.97
2018-08-20T13:12:19.658Z,18.97
2018-08-20T13:14:48.128Z,20.87
2018-08-20T13:17:17.111Z,19.17
2018-08-20T13:19:45.303Z,17.87
2018-08-20T13:22:13.506Z,18.27
2018-08-20T13:24:41.758Z,20.10
2018-08-20T13:27:09.994Z,19.43
2018-08-20T13:29:38.206Z,17.67
2018-08-20T13:32:06.799Z,17.90
2018-08-20T13:34:35.020Z,17.90
2018-08-20T13:37:03.359Z,18.00
2018-08-20T13:39:31.570Z,17.70
2018-08-20T13:41:59.742Z,17.90
2018-08-20T13:44:27.963Z,18.00
2018-08-20T13:46:56.135Z,17.07
2018-08-20T13:49:24.336Z,15.77
2018-08-20T13:51:53.004Z,16.80
2018-08-20T13:54:21.287Z,15.70
2018-08-20T13:56:49.494Z,15.80
2018-08-20T13:59:17.673Z,15.47
2018-08-20T14:01:45.868Z,15.00
2018-08-20T14:04:14.116Z,15.93
2018-08-20T14:06:42.284Z,17.23
2018-08-20T14:09:11.340Z,17.50
2018-08-20T14:11:39.534Z,16.27
2018-08-20T14:14:08.311Z,16.70
2018-08-20T14:16:36.598Z,19.93
2018-08-20T14:19:05.057Z,17.80
2018-08-20T14:21:33.230Z,15.27
2018-08-20T14:24:01.439Z,16.90
2018-08-20T14:26:29.998Z,16.50
2018-08-20T14:28:58.174Z,16.70
2018-08-20T14:31:26.355Z,15.87
2018-08-20T14:33:54.613Z,14.90
2018-08-20T14:36:22.811Z,13.27
2018-08-20T14:38:51.019Z,15.63
2018-08-20T14:41:19.190Z,14.37
2018-08-20T14:43:47.371Z,15.53
2018-08-20T14:46:21.010Z,15.93
2018-08-20T14:48:49.601Z,15.00
2018-08-20T14:51:18.123Z,15.07
2018-08-20T14:53:46.333Z,15.73
2018-08-20T14:56:14.548Z,20.90
2018-08-20T14:58:42.737Z,23.27
2018-08-20T15:01:11.010Z,22.77
2018-08-20T15:03:39.215Z,24.20
2018-08-20T15:06:07.444Z,24.13
2018-08-20T15:08:37.098Z,24.77
2018-08-20T15:11:05.294Z,25.47
2018-08-20T15:13:33.695Z,24.83
2018-08-20T15:16:01.948Z,24.50
2018-08-20T15:18:30.070Z,25.90
2018-08-20T15:20:58.264Z,25.77
2018-08-20T15:23:26.486Z,24.90
2018-08-20T15:25:54.694Z,25.10
2018-08-20T15:28:22.882Z,25.77
2018-08-20T15:30:51.075Z,26.07
2018-08-20T15:33:19.268Z,25.13
2018-08-20T15:35:47.442Z,25.20
2018-08-20T15:38:15.627Z,22.80
2018-08-20T15:40:43.804Z,22.23
2018-08-20T15:43:11.991Z,21.47
2018-08-20T15:45:40.182Z,19.70
2018-08-20T15:48:08.502Z,20.47
2018-08-20T15:50:36.715Z,19.30
2018-08-20T15:53:05.049Z,18.00
2018-08-20T15:55:33.146Z,17.40
2018-08-20T15:58:01.327Z,17.10
2018-08-20T16:00:29.517Z,17.13
2018-08-20T16:02:57.699Z,16.73
2018-08-20T16:05:25.891Z,19.03
2018-08-20T16:07:54.120Z,17.53
2018-08-20T16:10:22.310Z,17.13
2018-08-20T16:12:50.534Z,17.60
2018-08-20T16:15:18.711Z,17.40
2018-08-20T16:17:46.903Z,17.23
2018-08-20T16:20:15.111Z,17.47
2018-08-20T16:22:43.287Z,16.90
2018-08-20T16:25:11.511Z,18.03
2018-08-20T16:27:39.700Z,17.07
2018-08-20T16:30:10.275Z,16.33
2018-08-20T16:32:38.494Z,15.93
2018-08-20T16:35:08.326Z,14.40
2018-08-20T16:37:36.509Z,14.30
2018-08-20T16:40:04.954Z,14.60
2018-08-20T16:42:33.135Z,14.00
2018-08-20T16:45:01.338Z,13.40
2018-08-20T16:47:29.519Z,14.23
2018-08-20T16:49:57.715Z,13.47
2018-08-20T16:52:25.979Z,12.73
2018-08-20T16:54:54.174Z,13.50
2018-08-20T16:57:22.478Z,13.77
2018-08-20T16:59:50.658Z,14.17
2018-08-20T17:02:23.996Z,15.20
2018-08-20T17:04:52.175Z,15.47
2018-08-20T17:07:20.360Z,14.90
2018-08-20T17:09:48.547Z,14.00
2018-08-20T17:12:16.739Z,14.97
2018-08-20T17:14:44.950Z,14.63
2018-08-20T17:17:13.144Z,15.03
2018-08-20T17:19:43.690Z,13.23
2018-08-20T17:22:11.890Z,14.97
2018-08-20T17:24:40.849Z,14.50
2018-08-20T17:27:09.502Z,14.70
2018-08-20T17:29:37.718Z,14.60
2018-08-20T17:32:07.218Z,14.50
2018-08-20T17:34:37.966Z,15.40
2018-08-20T17:37:06.171Z,13.30
2018-08-20T17:39:35.283Z,13.73
2018-08-20T17:42:03.474Z,13.73
2018-08-20T17:44:31.657Z,13.67
2018-08-20T17:47:00.044Z,14.00
2018-08-20T17:49:29.107Z,14.40
2018-08-20T17:51:57.310Z,13.10
2018-08-20T17:54:28.426Z,15.47
2018-08-20T17:56:56.722Z,14.70
2018-08-20T17:59:24.930Z,13.97
2018-08-20T18:01:53.108Z,15.97
2018-08-20T18:04:21.286Z,14.70
2018-08-20T18:06:51.914Z,14.10
2018-08-20T18:09:20.110Z,12.83
2018-08-20T18:11:51.112Z,14.20
2018-08-20T18:14:20.683Z,13.90
2018-08-20T18:16:48.877Z,13.20
2018-08-20T18:19:17.374Z,13.30
2018-08-20T18:21:45.660Z,14.13
2018-08-20T18:24:20.891Z,15.07
2018-08-20T18:26:52.718Z,15.47
2018-08-20T18:29:20.914Z,14.80
2018-08-20T18:31:53.182Z,15.07
2018-08-20T18:34:21.620Z,13.40
2018-08-20T18:36:49.802Z,16.53
2018-08-20T18:39:17.983Z,14.73
2018-08-20T18:42:03.616Z,13.93
2018-08-20T18:44:31.807Z,13.10
2018-08-20T18:47:00.034Z,15.40
2018-08-20T18:49:28.218Z,15.50
2018-08-20T18:52:02.975Z,14.33
2018-08-20T18:54:36.339Z,14.50
2018-08-20T18:57:05.356Z,14.37
2018-08-20T18:59:35.063Z,14.40
2018-08-20T19:02:03.297Z,14.60
2018-08-20T19:04:38.221Z,13.93
2018-08-20T19:07:09.019Z,14.30
2018-08-20T19:09:37.603Z,13.37
2018-08-20T19:12:05.802Z,14.57
2018-08-20T19:14:34.006Z,13.63
2018-08-20T19:17:02.230Z,13.53
2018-08-20T19:19:34.571Z,12.80
2018-08-20T19:22:02.782Z,13.00
2018-08-20T19:24:35.118Z,11.73
2018-08-20T19:27:07.554Z,11.90
2018-08-20T19:29:35.654Z,11.50
2018-08-20T19:32:03.885Z,12.00
2018-08-20T19:34:32.066Z,13.10
2018-08-20T19:37:00.251Z,11.77
2018-08-20T19:39:28.432Z,11.93
2018-08-20T19:41:56.664Z,12.10
2018-08-20T19:44:24.869Z,12.30
2018-08-20T19:46:54.906Z,12.00
2018-08-20T19:49:23.563Z,11.67
2018-08-20T19:51:51.770Z,12.20
2018-08-20T19:54:19.979Z,11.93
2018-08-20T19:56:48.194Z,11.83
2018-08-20T19:59:26.555Z,13.00
2018-08-20T20:01:55.297Z,12.27
2018-08-20T20:04:23.474Z,11.30
2018-08-20T20:06:51.680Z,12.40
2018-08-20T20:09:19.868Z,13.43
2018-08-20T20:11:49.693Z,13.33
2018-08-20T20:14:17.901Z,12.60
2018-08-20T20:16:51.402Z,12.87
2018-08-20T20:19:19.652Z,13.20
2018-08-20T20:21:47.890Z,12.10
2018-08-20T20:24:16.094Z,12.60
2018-08-20T20:26:44.285Z,12.43
2018-08-20T20:29:12.567Z,13.67
2018-08-20T20:31:41.737Z,13.40
2018-08-20T20:34:10.029Z,13.30
2018-08-20T20:36:38.246Z,13.20
2018-08-20T20:39:08.679Z,12.67
2018-08-20T20:41:36.926Z,13.10
2018-08-20T20:44:05.441Z,12.47
2018-08-20T20:46:33.697Z,13.37
2018-08-20T20:49:01.869Z,12.83
2018-08-20T20:51:30.050Z,13.13
2018-08-20T20:53:58.219Z,13.50
2018-08-20T20:56:26.399Z,13.10
2018-08-20T20:58:54.602Z,12.80
2018-08-20T21:01:22.830Z,13.50
2018-08-20T21:03:51.046Z,13.00
2018-08-20T21:06:19.333Z,13.97
2018-08-20T21:08:48.552Z,13.77
2018-08-20T21:11:17.898Z,14.37
2018-08-20T21:13:46.390Z,13.47
2018-08-20T21:16:15.749Z,13.57
2018-08-20T21:18:46.590Z,12.77
2018-08-20T21:21:15.983Z,12.50
2018-08-20T21:23:44.194Z,13.50
2018-08-20T21:26:12.402Z,13.00
2018-08-20T21:28:43.418Z,13.63
2018-08-20T21:31:12.046Z,12.70
2018-08-20T21:33:40.947Z,12.73
2018-08-20T21:36:09.424Z,13.80
2018-08-20T21:38:37.599Z,13.77
2018-08-20T21:41:05.947Z,12.90
2018-08-20T21:43:39.508Z,12.37
2018-08-20T21:46:07.755Z,12.77
2018-08-20T21:48:35.939Z,12.43
2018-08-20T21:51:07.903Z,13.00
2018-08-20T21:53:38.742Z,13.13
2018-08-20T21:56:11.110Z,13.17
2018-08-20T21:58:41.480Z,12.60
2018-08-20T22:01:11.162Z,13.20
2018-08-20T22:03:39.722Z,12.80
2018-08-20T22:06:07.982Z,13.10
2018-08-20T22:08:36.802Z,13.87
2018-08-20T22:11:05.015Z,14.60
2018-08-20T22:13:33.347Z,14.20
2018-08-20T22:16:16.258Z,13.77
2018-08-20T22:18:45.669Z,14.93
2018-08-20T22:21:15.042Z,14.10
2018-08-20T22:23:43.966Z,14.40
2018-08-20T22:26:14.095Z,14.00
2018-08-20T22:28:42.654Z,14.27
2018-08-20T22:31:10.869Z,13.70
2018-08-20T22:33:39.216Z,13.90
2018-08-20T22:36:08.423Z,13.67
2018-08-20T22:38:57.992Z,13.43
2018-08-20T22:41:27.282Z,13.10
2018-08-20T22:43:55.504Z,13.80
2018-08-20T22:46:24.287Z,13.60
2018-08-20T22:48:53.858Z,14.60
2018-08-20T22:51:22.781Z,14.00
2018-08-20T22:53:54.080Z,14.17
2018-08-20T22:56:36.907Z,13.87
2018-08-20T22:59:09.648Z,13.30
2018-08-20T23:01:37.895Z,15.77
2018-08-20T23:04:06.460Z,14.00
2018-08-20T23:06:34.694Z,12.93
2018-08-20T23:09:34.866Z,12.53
2018-08-20T23:12:03.090Z,13.70
2018-08-20T23:14:32.850Z,13.17
2018-08-20T23:17:01.042Z,13.10
2018-08-20T23:19:30.128Z,13.27
2018-08-20T23:21:58.308Z,14.90
2018-08-20T23:24:26.478Z,13.50
2018-08-20T23:26:54.660Z,14.43
2018-08-20T23:29:22.876Z,13.77
2018-08-20T23:31:51.054Z,15.00
2018-08-20T23:34:19.223Z,13.10
2018-08-20T23:36:47.447Z,13.30
2018-08-20T23:39:16.737Z,14.80
2018-08-20T23:41:44.926Z,12.60
2018-08-20T23:44:15.517Z,14.43
2018-08-20T23:46:45.568Z,13.90
2018-08-20T23:49:13.757Z,14.00
2018-08-20T23:51:41.942Z,13.97
2018-08-20T23:54:11.143Z,14.07
2018-08-20T23:56:39.314Z,12.57
2018-08-20T23:59:07.602Z,13.43
